Hauptseite
METAR-TAF:

METAR-TAF

Flughäfen :

Flughafen Bergamo

Bergamo, Italien

Breite: 45-40N, Länge: 009-42E, Höhe: 238 m

Beobachtung

Neuester Wetterbericht von vor 11 Minuten, um 13:20 UTC
Wind 3 kt aus Ost/Südost, variierte zwischen Nordost und Süd/Südwest
Temperatur 21°C
Luftfeuchtigkeit 53%
Luftdruck 1018 hPa
Sichtweite 10 km oder mehr
Leicht bewölkt in der Höhe von 8000 ft

METAR: LIME 151320Z 12003KT 040V200 9999 FEW080 21/11 Q1018 NOSIG

Zeit: 15:31 (13:31 UTC)

Prognose

Neuester Wetterbericht von vor 2 Stunden und 31 Minuten, um 11:00 UTC
Gültige Prognose vom 15 um 12 UTC bis 16 um 12 UTC
Wind 5 kt aus unterschiedlichen Richtungen
Sichtweite 10 km oder mehr
Aufgelockert bewölkt in der Höhe von 6000 ft
Wahrscheinlichkeit 40% :
Zeitweise
vom 15 um 16 UTC bis 15 um 20 UTC
Sichtweite: 4000 m
Regen

TAF: LIME 151100Z 1512/1612 VRB05KT 9999 SCT060 PROB40 TEMPO 1516/1520 4000 RA

Wetterbeobachtungen und Prognosen von mehr als 4000 Flughäfen (METAR und TAF Bericht).

Die verfügbaren Stationen werden durch gelbe und rote Markierungen auf der Karte dargestellt.

Führen Sie die Maus auf sie, um den Namen der Station zu sehen.

Darauf klicken, um die Beobachtung von Wetterbeobachtungen und Prognosen zu sehen.

Um die Karte zu ändern : klicken Sie auf den grünen Tasten mit einem schwarzen Kreuz Zum Vergrößern, auf den grünen Button mit einem Gedankenstrich zu verkleinern, oder auf die grünen Pfeile für benachbarte Karten.


METAR-TAF: